sensor_id;sensor_type;location;lat;lon;timestamp;P1;durP1;ratioP1;P2;durP2;ratioP2
27999;SDS011;15328;50.860;10.562;2022-10-31T00:02:01;6.73;;;2.53;;
27999;SDS011;15328;50.860;10.562;2022-10-31T00:07:01;6.30;;;2.87;;
27999;SDS011;15328;50.860;10.562;2022-10-31T00:12:01;7.57;;;2.63;;
27999;SDS011;15328;50.860;10.562;2022-10-31T00:17:02;8.50;;;2.80;;
27999;SDS011;15328;50.860;10.562;2022-10-31T00:22:02;6.22;;;2.38;;
27999;SDS011;15328;50.860;10.562;2022-10-31T00:27:03;8.47;;;2.60;;
27999;SDS011;15328;50.860;10.562;2022-10-31T00:32:03;4.07;;;2.30;;
27999;SDS011;15328;50.860;10.562;2022-10-31T00:37:04;8.88;;;2.72;;
27999;SDS011;15328;50.860;10.562;2022-10-31T00:42:04;6.33;;;2.63;;
27999;SDS011;15328;50.860;10.562;2022-10-31T00:47:05;6.45;;;2.33;;
27999;SDS011;15328;50.860;10.562;2022-10-31T00:52:05;6.73;;;2.30;;
27999;SDS011;15328;50.860;10.562;2022-10-31T00:57:05;4.90;;;2.50;;
27999;SDS011;15328;50.860;10.562;2022-10-31T01:02:06;6.07;;;2.40;;
27999;SDS011;15328;50.860;10.562;2022-10-31T01:07:06;6.60;;;3.13;;
27999;SDS011;15328;50.860;10.562;2022-10-31T01:12:07;6.50;;;3.03;;
27999;SDS011;15328;50.860;10.562;2022-10-31T01:17:07;7.20;;;2.97;;
27999;SDS011;15328;50.860;10.562;2022-10-31T01:22:08;7.80;;;2.85;;
27999;SDS011;15328;50.860;10.562;2022-10-31T01:27:08;6.50;;;2.53;;
27999;SDS011;15328;50.860;10.562;2022-10-31T01:32:08;6.07;;;2.40;;
27999;SDS011;15328;50.860;10.562;2022-10-31T01:37:09;4.85;;;2.63;;
27999;SDS011;15328;50.860;10.562;2022-10-31T01:42:11;6.77;;;2.87;;
27999;SDS011;15328;50.860;10.562;2022-10-31T01:52:31;6.60;;;2.58;;
27999;SDS011;15328;50.860;10.562;2022-10-31T01:57:37;9.63;;;3.58;;
27999;SDS011;15328;50.860;10.562;2022-10-31T02:02:40;6.35;;;3.10;;
27999;SDS011;15328;50.860;10.562;2022-10-31T02:08:25;6.18;;;2.60;;
27999;SDS011;15328;50.860;10.562;2022-10-31T02:13:08;6.35;;;2.85;;
27999;SDS011;15328;50.860;10.562;2022-10-31T02:18:09;6.10;;;2.80;;
27999;SDS011;15328;50.860;10.562;2022-10-31T02:33:53;6.60;;;2.60;;
27999;SDS011;15328;50.860;10.562;2022-10-31T02:44:16;5.35;;;2.85;;
27999;SDS011;15328;50.860;10.562;2022-10-31T02:49:45;7.45;;;3.08;;
27999;SDS011;15328;50.860;10.562;2022-10-31T03:00:22;6.82;;;3.00;;
27999;SDS011;15328;50.860;10.562;2022-10-31T03:05:35;7.03;;;2.75;;
27999;SDS011;15328;50.860;10.562;2022-10-31T03:10:52;7.82;;;2.80;;
27999;SDS011;15328;50.860;10.562;2022-10-31T03:16:04;6.95;;;2.65;;
27999;SDS011;15328;50.860;10.562;2022-10-31T03:21:43;6.43;;;3.08;;
27999;SDS011;15328;50.860;10.562;2022-10-31T03:26:41;6.60;;;3.13;;
27999;SDS011;15328;50.860;10.562;2022-10-31T03:31:52;10.27;;;3.17;;
27999;SDS011;15328;50.860;10.562;2022-10-31T03:36:59;6.43;;;2.80;;
27999;SDS011;15328;50.860;10.562;2022-10-31T03:42:09;6.35;;;2.88;;
27999;SDS011;15328;50.860;10.562;2022-10-31T03:47:13;7.60;;;3.13;;
27999;SDS011;15328;50.860;10.562;2022-10-31T03:53:01;6.53;;;2.78;;
27999;SDS011;15328;50.860;10.562;2022-10-31T03:58:00;5.63;;;2.70;;
27999;SDS011;15328;50.860;10.562;2022-10-31T04:08:16;7.78;;;3.17;;
27999;SDS011;15328;50.860;10.562;2022-10-31T04:13:20;5.38;;;2.53;;
27999;SDS011;15328;50.860;10.562;2022-10-31T04:18:25;8.88;;;3.58;;
27999;SDS011;15328;50.860;10.562;2022-10-31T04:23:26;7.40;;;3.10;;
27999;SDS011;15328;50.860;10.562;2022-10-31T04:28:27;6.63;;;3.40;;
27999;SDS011;15328;50.860;10.562;2022-10-31T04:33:28;8.27;;;3.00;;
27999;SDS011;15328;50.860;10.562;2022-10-31T04:38:28;5.80;;;2.65;;
27999;SDS011;15328;50.860;10.562;2022-10-31T04:43:28;7.13;;;3.23;;
27999;SDS011;15328;50.860;10.562;2022-10-31T04:48:29;6.80;;;2.97;;
27999;SDS011;15328;50.860;10.562;2022-10-31T04:53:29;8.52;;;3.50;;
27999;SDS011;15328;50.860;10.562;2022-10-31T04:58:30;7.03;;;3.07;;
27999;SDS011;15328;50.860;10.562;2022-10-31T05:03:30;8.80;;;3.20;;
27999;SDS011;15328;50.860;10.562;2022-10-31T05:08:30;6.32;;;3.30;;
27999;SDS011;15328;50.860;10.562;2022-10-31T05:13:31;9.50;;;2.77;;
27999;SDS011;15328;50.860;10.562;2022-10-31T05:18:31;5.93;;;3.28;;
27999;SDS011;15328;50.860;10.562;2022-10-31T05:23:31;5.70;;;3.00;;
27999;SDS011;15328;50.860;10.562;2022-10-31T05:28:32;6.80;;;2.97;;
27999;SDS011;15328;50.860;10.562;2022-10-31T05:33:32;10.03;;;3.03;;
27999;SDS011;15328;50.860;10.562;2022-10-31T05:38:32;6.55;;;3.30;;
27999;SDS011;15328;50.860;10.562;2022-10-31T05:43:33;8.40;;;3.43;;
27999;SDS011;15328;50.860;10.562;2022-10-31T05:48:33;7.05;;;3.53;;
27999;SDS011;15328;50.860;10.562;2022-10-31T05:53:33;5.20;;;2.90;;
27999;SDS011;15328;50.860;10.562;2022-10-31T05:58:34;9.60;;;3.35;;
27999;SDS011;15328;50.860;10.562;2022-10-31T06:03:34;10.52;;;3.25;;
27999;SDS011;15328;50.860;10.562;2022-10-31T06:08:35;6.87;;;3.40;;
27999;SDS011;15328;50.860;10.562;2022-10-31T06:13:35;8.25;;;3.80;;
27999;SDS011;15328;50.860;10.562;2022-10-31T06:18:36;8.60;;;3.90;;
27999;SDS011;15328;50.860;10.562;2022-10-31T06:23:36;12.80;;;4.15;;
27999;SDS011;15328;50.860;10.562;2022-10-31T06:28:36;12.40;;;3.67;;
27999;SDS011;15328;50.860;10.562;2022-10-31T06:33:37;8.18;;;3.40;;
27999;SDS011;15328;50.860;10.562;2022-10-31T06:38:37;8.83;;;3.63;;
27999;SDS011;15328;50.860;10.562;2022-10-31T06:43:37;10.83;;;3.50;;
27999;SDS011;15328;50.860;10.562;2022-10-31T06:48:39;5.80;;;3.17;;
27999;SDS011;15328;50.860;10.562;2022-10-31T06:53:40;9.30;;;3.55;;
27999;SDS011;15328;50.860;10.562;2022-10-31T06:58:42;7.95;;;3.55;;
27999;SDS011;15328;50.860;10.562;2022-10-31T07:03:42;8.68;;;3.45;;
27999;SDS011;15328;50.860;10.562;2022-10-31T07:08:42;7.80;;;3.07;;
27999;SDS011;15328;50.860;10.562;2022-10-31T07:13:43;9.13;;;4.00;;
27999;SDS011;15328;50.860;10.562;2022-10-31T07:18:43;8.82;;;4.45;;
27999;SDS011;15328;50.860;10.562;2022-10-31T07:23:43;7.53;;;3.67;;
27999;SDS011;15328;50.860;10.562;2022-10-31T07:28:47;7.38;;;3.40;;
27999;SDS011;15328;50.860;10.562;2022-10-31T07:33:48;7.88;;;3.30;;
27999;SDS011;15328;50.860;10.562;2022-10-31T07:38:49;6.57;;;3.08;;
27999;SDS011;15328;50.860;10.562;2022-10-31T07:43:49;7.95;;;3.40;;
27999;SDS011;15328;50.860;10.562;2022-10-31T07:48:50;5.37;;;3.00;;
27999;SDS011;15328;50.860;10.562;2022-10-31T07:53:50;6.70;;;3.23;;
27999;SDS011;15328;50.860;10.562;2022-10-31T07:58:50;5.80;;;3.00;;
27999;SDS011;15328;50.860;10.562;2022-10-31T08:03:51;5.13;;;2.50;;
27999;SDS011;15328;50.860;10.562;2022-10-31T08:08:51;6.53;;;2.88;;
27999;SDS011;15328;50.860;10.562;2022-10-31T08:13:51;6.50;;;3.60;;
27999;SDS011;15328;50.860;10.562;2022-10-31T08:18:52;6.38;;;3.40;;
27999;SDS011;15328;50.860;10.562;2022-10-31T08:23:54;7.30;;;3.15;;
27999;SDS011;15328;50.860;10.562;2022-10-31T08:28:54;8.45;;;3.47;;
27999;SDS011;15328;50.860;10.562;2022-10-31T08:33:54;5.65;;;3.17;;
27999;SDS011;15328;50.860;10.562;2022-10-31T08:38:55;5.97;;;3.30;;
27999;SDS011;15328;50.860;10.562;2022-10-31T08:43:56;7.68;;;3.78;;
27999;SDS011;15328;50.860;10.562;2022-10-31T08:48:56;9.00;;;4.10;;
27999;SDS011;15328;50.860;10.562;2022-10-31T08:53:56;6.73;;;3.30;;
27999;SDS011;15328;50.860;10.562;2022-10-31T08:58:57;9.40;;;4.20;;
27999;SDS011;15328;50.860;10.562;2022-10-31T09:03:58;8.15;;;3.40;;
27999;SDS011;15328;50.860;10.562;2022-10-31T09:08:58;6.13;;;3.10;;
27999;SDS011;15328;50.860;10.562;2022-10-31T09:13:58;5.83;;;2.80;;
27999;SDS011;15328;50.860;10.562;2022-10-31T09:18:59;7.03;;;3.10;;
27999;SDS011;15328;50.860;10.562;2022-10-31T09:23:59;10.45;;;3.40;;
27999;SDS011;15328;50.860;10.562;2022-10-31T09:28:59;6.93;;;2.40;;
27999;SDS011;15328;50.860;10.562;2022-10-31T09:34:02;5.95;;;2.30;;
27999;SDS011;15328;50.860;10.562;2022-10-31T09:39:03;4.20;;;2.28;;
27999;SDS011;15328;50.860;10.562;2022-10-31T09:54:36;6.15;;;2.50;;
27999;SDS011;15328;50.860;10.562;2022-10-31T09:59:43;7.07;;;2.50;;
27999;SDS011;15328;50.860;10.562;2022-10-31T10:04:55;7.75;;;2.75;;
27999;SDS011;15328;50.860;10.562;2022-10-31T10:10:04;6.07;;;2.63;;
27999;SDS011;15328;50.860;10.562;2022-10-31T10:15:33;4.93;;;2.22;;
27999;SDS011;15328;50.860;10.562;2022-10-31T10:21:29;6.20;;;3.30;;
27999;SDS011;15328;50.860;10.562;2022-10-31T10:26:13;5.40;;;2.65;;
27999;SDS011;15328;50.860;10.562;2022-10-31T10:31:20;5.30;;;2.55;;
27999;SDS011;15328;50.860;10.562;2022-10-31T10:36:36;6.57;;;3.17;;
27999;SDS011;15328;50.860;10.562;2022-10-31T10:41:44;5.50;;;2.60;;
27999;SDS011;15328;50.860;10.562;2022-10-31T10:47:07;8.52;;;3.00;;
27999;SDS011;15328;50.860;10.562;2022-10-31T10:52:39;7.05;;;3.15;;
27999;SDS011;15328;50.860;10.562;2022-10-31T11:03:03;8.57;;;3.63;;
27999;SDS011;15328;50.860;10.562;2022-10-31T11:08:04;11.82;;;2.92;;
27999;SDS011;15328;50.860;10.562;2022-10-31T11:18:17;6.55;;;3.15;;
27999;SDS011;15328;50.860;10.562;2022-10-31T11:23:22;7.20;;;3.08;;
27999;SDS011;15328;50.860;10.562;2022-10-31T11:28:24;6.72;;;3.13;;
27999;SDS011;15328;50.860;10.562;2022-10-31T11:33:28;6.57;;;2.85;;
27999;SDS011;15328;50.860;10.562;2022-10-31T11:38:40;6.25;;;3.03;;
27999;SDS011;15328;50.860;10.562;2022-10-31T11:43:52;7.47;;;3.25;;
27999;SDS011;15328;50.860;10.562;2022-10-31T11:48:54;6.60;;;2.90;;
27999;SDS011;15328;50.860;10.562;2022-10-31T11:53:57;5.10;;;2.83;;
27999;SDS011;15328;50.860;10.562;2022-10-31T11:59:02;5.40;;;3.20;;
27999;SDS011;15328;50.860;10.562;2022-10-31T12:04:11;8.93;;;3.85;;
27999;SDS011;15328;50.860;10.562;2022-10-31T12:09:20;7.17;;;3.93;;
27999;SDS011;15328;50.860;10.562;2022-10-31T12:25:03;7.80;;;3.70;;
27999;SDS011;15328;50.860;10.562;2022-10-31T12:30:21;6.60;;;3.22;;
27999;SDS011;15328;50.860;10.562;2022-10-31T12:40:46;9.30;;;4.30;;
27999;SDS011;15328;50.860;10.562;2022-10-31T12:46:13;6.53;;;3.53;;
27999;SDS011;15328;50.860;10.562;2022-10-31T13:07:15;7.90;;;4.13;;
27999;SDS011;15328;50.860;10.562;2022-10-31T13:12:22;8.30;;;4.10;;
27999;SDS011;15328;50.860;10.562;2022-10-31T13:17:26;8.95;;;4.05;;
27999;SDS011;15328;50.860;10.562;2022-10-31T13:22:31;7.47;;;3.50;;
27999;SDS011;15328;50.860;10.562;2022-10-31T13:27:41;6.97;;;3.25;;
27999;SDS011;15328;50.860;10.562;2022-10-31T13:32:54;7.18;;;3.10;;
27999;SDS011;15328;50.860;10.562;2022-10-31T13:48:48;5.88;;;3.03;;
27999;SDS011;15328;50.860;10.562;2022-10-31T14:04:04;7.65;;;3.53;;
27999;SDS011;15328;50.860;10.562;2022-10-31T14:09:16;8.85;;;4.00;;
27999;SDS011;15328;50.860;10.562;2022-10-31T14:14:31;6.95;;;3.53;;
27999;SDS011;15328;50.860;10.562;2022-10-31T14:19:34;5.00;;;3.30;;
27999;SDS011;15328;50.860;10.562;2022-10-31T14:24:35;9.53;;;5.00;;
27999;SDS011;15328;50.860;10.562;2022-10-31T14:29:36;8.73;;;4.60;;
27999;SDS011;15328;50.860;10.562;2022-10-31T14:34:50;8.20;;;4.50;;
27999;SDS011;15328;50.860;10.562;2022-10-31T14:50:48;13.82;;;6.18;;
27999;SDS011;15328;50.860;10.562;2022-10-31T14:55:54;9.30;;;5.00;;
27999;SDS011;15328;50.860;10.562;2022-10-31T15:00:56;10.68;;;5.43;;
27999;SDS011;15328;50.860;10.562;2022-10-31T15:05:59;9.52;;;5.00;;
27999;SDS011;15328;50.860;10.562;2022-10-31T15:11:08;10.88;;;6.55;;
27999;SDS011;15328;50.860;10.562;2022-10-31T15:16:10;10.32;;;6.47;;
27999;SDS011;15328;50.860;10.562;2022-10-31T15:21:14;9.98;;;6.45;;
27999;SDS011;15328;50.860;10.562;2022-10-31T15:26:21;9.52;;;6.63;;
27999;SDS011;15328;50.860;10.562;2022-10-31T15:31:23;15.15;;;7.10;;
27999;SDS011;15328;50.860;10.562;2022-10-31T15:36:24;8.07;;;5.70;;
27999;SDS011;15328;50.860;10.562;2022-10-31T15:41:30;9.57;;;5.50;;
27999;SDS011;15328;50.860;10.562;2022-10-31T15:46:35;8.40;;;5.30;;
27999;SDS011;15328;50.860;10.562;2022-10-31T15:51:35;12.53;;;7.00;;
27999;SDS011;15328;50.860;10.562;2022-10-31T15:56:37;16.00;;;10.27;;
27999;SDS011;15328;50.860;10.562;2022-10-31T16:01:37;19.15;;;11.93;;
27999;SDS011;15328;50.860;10.562;2022-10-31T16:06:38;13.27;;;9.20;;
27999;SDS011;15328;50.860;10.562;2022-10-31T16:11:39;14.63;;;9.25;;
27999;SDS011;15328;50.860;10.562;2022-10-31T16:16:42;10.93;;;7.65;;
27999;SDS011;15328;50.860;10.562;2022-10-31T16:26:50;10.93;;;5.55;;
27999;SDS011;15328;50.860;10.562;2022-10-31T16:31:54;8.48;;;4.97;;
27999;SDS011;15328;50.860;10.562;2022-10-31T16:36:54;9.93;;;4.93;;
27999;SDS011;15328;50.860;10.562;2022-10-31T16:41:54;10.43;;;6.20;;
27999;SDS011;15328;50.860;10.562;2022-10-31T16:47:09;11.45;;;7.55;;
27999;SDS011;15328;50.860;10.562;2022-10-31T16:52:13;16.58;;;9.75;;
27999;SDS011;15328;50.860;10.562;2022-10-31T16:57:14;12.25;;;7.90;;
27999;SDS011;15328;50.860;10.562;2022-10-31T17:02:17;15.48;;;6.57;;
27999;SDS011;15328;50.860;10.562;2022-10-31T17:07:17;9.70;;;6.00;;
27999;SDS011;15328;50.860;10.562;2022-10-31T17:12:18;9.73;;;5.50;;
27999;SDS011;15328;50.860;10.562;2022-10-31T17:17:22;12.57;;;5.72;;
27999;SDS011;15328;50.860;10.562;2022-10-31T17:22:22;14.90;;;7.17;;
27999;SDS011;15328;50.860;10.562;2022-10-31T17:27:23;24.73;;;16.87;;
27999;SDS011;15328;50.860;10.562;2022-10-31T17:32:23;24.67;;;13.65;;
27999;SDS011;15328;50.860;10.562;2022-10-31T17:37:23;18.05;;;11.30;;
27999;SDS011;15328;50.860;10.562;2022-10-31T17:42:24;10.23;;;6.87;;
27999;SDS011;15328;50.860;10.562;2022-10-31T17:47:24;10.17;;;6.20;;
27999;SDS011;15328;50.860;10.562;2022-10-31T17:52:24;11.07;;;5.70;;
27999;SDS011;15328;50.860;10.562;2022-10-31T17:57:25;11.30;;;5.38;;
27999;SDS011;15328;50.860;10.562;2022-10-31T18:02:25;7.20;;;4.75;;
27999;SDS011;15328;50.860;10.562;2022-10-31T18:07:26;6.63;;;4.90;;
27999;SDS011;15328;50.860;10.562;2022-10-31T18:12:26;7.65;;;4.30;;
27999;SDS011;15328;50.860;10.562;2022-10-31T18:17:27;12.05;;;5.07;;
27999;SDS011;15328;50.860;10.562;2022-10-31T18:22:28;9.23;;;4.50;;
27999;SDS011;15328;50.860;10.562;2022-10-31T18:27:28;7.25;;;4.35;;
27999;SDS011;15328;50.860;10.562;2022-10-31T18:32:28;6.72;;;4.63;;
27999;SDS011;15328;50.860;10.562;2022-10-31T18:37:29;10.80;;;4.80;;
27999;SDS011;15328;50.860;10.562;2022-10-31T18:42:29;9.48;;;4.63;;
27999;SDS011;15328;50.860;10.562;2022-10-31T18:47:29;6.82;;;3.85;;
27999;SDS011;15328;50.860;10.562;2022-10-31T18:52:30;7.53;;;4.15;;
27999;SDS011;15328;50.860;10.562;2022-10-31T18:57:31;8.55;;;4.55;;
27999;SDS011;15328;50.860;10.562;2022-10-31T19:02:31;8.88;;;4.03;;
27999;SDS011;15328;50.860;10.562;2022-10-31T19:07:31;10.80;;;4.10;;
27999;SDS011;15328;50.860;10.562;2022-10-31T19:12:32;8.03;;;4.70;;
27999;SDS011;15328;50.860;10.562;2022-10-31T19:17:32;7.85;;;4.20;;
27999;SDS011;15328;50.860;10.562;2022-10-31T19:22:33;6.20;;;3.80;;
27999;SDS011;15328;50.860;10.562;2022-10-31T19:27:33;8.77;;;4.27;;
27999;SDS011;15328;50.860;10.562;2022-10-31T19:32:33;8.15;;;4.50;;
27999;SDS011;15328;50.860;10.562;2022-10-31T19:37:34;13.20;;;5.20;;
27999;SDS011;15328;50.860;10.562;2022-10-31T19:42:35;9.95;;;5.15;;
27999;SDS011;15328;50.860;10.562;2022-10-31T19:47:36;6.95;;;3.95;;
27999;SDS011;15328;50.860;10.562;2022-10-31T19:52:36;8.03;;;3.57;;
27999;SDS011;15328;50.860;10.562;2022-10-31T19:57:37;7.93;;;5.18;;
27999;SDS011;15328;50.860;10.562;2022-10-31T20:02:37;8.57;;;4.87;;
27999;SDS011;15328;50.860;10.562;2022-10-31T20:07:38;6.90;;;4.10;;
27999;SDS011;15328;50.860;10.562;2022-10-31T20:12:38;6.83;;;3.90;;
27999;SDS011;15328;50.860;10.562;2022-10-31T20:17:38;7.87;;;4.63;;
27999;SDS011;15328;50.860;10.562;2022-10-31T20:22:38;7.40;;;4.40;;
27999;SDS011;15328;50.860;10.562;2022-10-31T20:27:39;21.43;;;11.03;;
27999;SDS011;15328;50.860;10.562;2022-10-31T20:32:39;26.10;;;14.80;;
27999;SDS011;15328;50.860;10.562;2022-10-31T20:37:40;20.63;;;13.27;;
27999;SDS011;15328;50.860;10.562;2022-10-31T20:42:40;15.47;;;9.87;;
27999;SDS011;15328;50.860;10.562;2022-10-31T20:47:40;10.07;;;6.00;;
27999;SDS011;15328;50.860;10.562;2022-10-31T20:52:40;7.50;;;4.43;;
27999;SDS011;15328;50.860;10.562;2022-10-31T20:57:41;13.70;;;8.07;;
27999;SDS011;15328;50.860;10.562;2022-10-31T21:02:41;14.15;;;8.45;;
27999;SDS011;15328;50.860;10.562;2022-10-31T21:07:42;11.13;;;6.85;;
27999;SDS011;15328;50.860;10.562;2022-10-31T21:12:43;9.90;;;4.70;;
27999;SDS011;15328;50.860;10.562;2022-10-31T21:17:43;7.05;;;4.00;;
27999;SDS011;15328;50.860;10.562;2022-10-31T21:22:44;8.00;;;3.10;;
27999;SDS011;15328;50.860;10.562;2022-10-31T21:27:44;6.65;;;2.72;;
27999;SDS011;15328;50.860;10.562;2022-10-31T21:32:44;7.00;;;3.03;;
27999;SDS011;15328;50.860;10.562;2022-10-31T21:37:45;8.02;;;2.70;;
27999;SDS011;15328;50.860;10.562;2022-10-31T21:42:45;6.53;;;2.77;;
27999;SDS011;15328;50.860;10.562;2022-10-31T21:47:46;5.70;;;2.83;;
27999;SDS011;15328;50.860;10.562;2022-10-31T21:52:47;9.20;;;3.22;;
27999;SDS011;15328;50.860;10.562;2022-10-31T21:57:47;10.30;;;3.45;;
27999;SDS011;15328;50.860;10.562;2022-10-31T22:02:47;10.75;;;3.58;;
27999;SDS011;15328;50.860;10.562;2022-10-31T22:07:48;7.60;;;3.17;;
27999;SDS011;15328;50.860;10.562;2022-10-31T22:12:48;6.10;;;2.95;;
27999;SDS011;15328;50.860;10.562;2022-10-31T22:17:48;9.60;;;4.53;;
27999;SDS011;15328;50.860;10.562;2022-10-31T22:22:49;12.85;;;5.63;;
27999;SDS011;15328;50.860;10.562;2022-10-31T22:27:50;11.82;;;5.90;;
27999;SDS011;15328;50.860;10.562;2022-10-31T22:32:51;10.07;;;5.55;;
27999;SDS011;15328;50.860;10.562;2022-10-31T22:37:52;13.60;;;5.97;;
27999;SDS011;15328;50.860;10.562;2022-10-31T22:42:53;9.68;;;5.47;;
27999;SDS011;15328;50.860;10.562;2022-10-31T22:47:53;12.70;;;6.25;;
27999;SDS011;15328;50.860;10.562;2022-10-31T22:52:54;11.88;;;6.00;;
27999;SDS011;15328;50.860;10.562;2022-10-31T22:57:54;11.00;;;6.00;;
27999;SDS011;15328;50.860;10.562;2022-10-31T23:02:55;12.45;;;5.57;;
27999;SDS011;15328;50.860;10.562;2022-10-31T23:07:55;9.00;;;4.30;;
27999;SDS011;15328;50.860;10.562;2022-10-31T23:12:56;9.70;;;4.70;;
27999;SDS011;15328;50.860;10.562;2022-10-31T23:18:15;9.70;;;4.28;;
27999;SDS011;15328;50.860;10.562;2022-10-31T23:23:16;8.65;;;4.75;;
27999;SDS011;15328;50.860;10.562;2022-10-31T23:28:16;10.90;;;4.95;;
27999;SDS011;15328;50.860;10.562;2022-10-31T23:33:17;9.55;;;6.03;;
27999;SDS011;15328;50.860;10.562;2022-10-31T23:38:17;11.75;;;6.43;;
27999;SDS011;15328;50.860;10.562;2022-10-31T23:43:17;10.37;;;6.00;;
27999;SDS011;15328;50.860;10.562;2022-10-31T23:48:18;9.47;;;5.10;;
27999;SDS011;15328;50.860;10.562;2022-10-31T23:53:18;9.87;;;5.60;;
27999;SDS011;15328;50.860;10.562;2022-10-31T23:58:18;11.05;;;6.57;;
